Wetterdaten: Woche 10.05.21 - 16.05.21 (KW19)
Datum Zeit Temp. Aussen Temp. o. S. Temp +5cm Feuchte Auss Luftdruck Regen Sonnenschein Regendauer Solar Windben Empfang
10.05.2021 00:00 20,4 C 19,4 C 16,2 C 63 % 1001,3 hPa 0,0 l/m 0,00 h 0,00 h 0 W/m 8,3 km/h (2 Bft) 98,71 %
10.05.2021 01:00 20,0 C 19,1 C 16,1 C 64 % 1001,2 hPa 0,0 l/m 0,00 h 0,03 h 0 W/m 9,9 km/h (2 Bft) 96,01 %
10.05.2021 02:00 20,3 C 19,5 C 16,1 C 64 % 1000,8 hPa 0,0 l/m 0,00 h 0,17 h 0 W/m 13,5 km/h (3 Bft) 98,30 %
10.05.2021 03:00 20,7 C 19,9 C 16,7 C 60 % 1000,5 hPa 0,0 l/m 0,00 h 0,00 h 0 W/m 22,2 km/h (4 Bft) 97,93 %
10.05.2021 04:00 21,6 C 20,5 C 16,8 C 56 % 1000,1 hPa 0,0 l/m 0,00 h 0,07 h 0 W/m 24,1 km/h (4 Bft) 97,29 %
10.05.2021 05:00 20,8 C 19,7 C 16,6 C 59 % 1000,1 hPa 0,0 l/m 0,00 h 0,00 h 0 W/m 22,4 km/h (4 Bft) 97,57 %
10.05.2021 06:00 20,8 C 19,8 C 16,7 C 60 % 1000,5 hPa 0,0 l/m 0,00 h 0,00 h 17 W/m 30,3 km/h (5 Bft) 97,79 %
10.05.2021 07:00 20,3 C 19,3 C 16,3 C 63 % 1001,5 hPa 0,0 l/m 0,00 h 0,00 h 38 W/m 25,5 km/h (4 Bft) 95,89 %
10.05.2021 08:00 19,9 C 19,8 C 16,5 C 66 % 1002,4 hPa 0,0 l/m 0,30 h 0,03 h 191 W/m 22,0 km/h (4 Bft) 97,00 %
10.05.2021 09:00 20,2 C 20,3 C 17,4 C 65 % 1003,4 hPa 0,0 l/m 0,30 h 0,00 h 193 W/m 27,3 km/h (4 Bft) 97,81 %
10.05.2021 10:00 19,2 C 19,0 C 16,3 C 68 % 1004,4 hPa 0,0 l/m 0,07 h 0,00 h 213 W/m 31,5 km/h (5 Bft) 98,15 %
10.05.2021 11:00 18,8 C 18,6 C 16,1 C 67 % 1005,2 hPa 0,0 l/m 0,17 h 0,00 h 268 W/m 34,2 km/h (5 Bft) 96,77 %
10.05.2021 12:00 18,5 C 18,1 C 15,6 C 70 % 1006,3 hPa 0,0 l/m 0,03 h 0,00 h 188 W/m 27,6 km/h (4 Bft) 97,98 %
10.05.2021 13:00 18,4 C 18,4 C 16,3 C 72 % 1007,1 hPa 0,0 l/m 0,23 h 0,10 h 265 W/m 26,0 km/h (4 Bft) 98,58 %
10.05.2021 14:00 15,3 C 15,1 C 12,7 C 85 % 1008,3 hPa 0,0 l/m 0,00 h 0,03 h 139 W/m 11,9 km/h (2 Bft) 96,80 %
10.05.2021 15:00 17,2 C 18,7 C 15,6 C 74 % 1008,1 hPa 0,0 l/m 0,40 h 0,00 h 392 W/m 15,0 km/h (3 Bft) 97,88 %
10.05.2021 16:00 19,6 C 20,7 C 17,1 C 63 % 1008,1 hPa 0,0 l/m 0,83 h 0,00 h 369 W/m 21,8 km/h (4 Bft) 97,76 %
10.05.2021 17:00 19,5 C 19,4 C 16,7 C 64 % 1008,0 hPa 0,0 l/m 0,00 h 0,00 h 216 W/m 16,0 km/h (3 Bft) 97,08 %
10.05.2021 18:00 19,5 C 19,4 C 16,4 C 63 % 1007,7 hPa 0,0 l/m 0,37 h 0,00 h 176 W/m 15,0 km/h (3 Bft) 98,53 %
10.05.2021 19:00 19,6 C 18,9 C 16,0 C 62 % 1007,9 hPa 0,0 l/m 0,13 h 0,00 h 101 W/m 8,3 km/h (2 Bft) 96,99 %
10.05.2021 20:00 18,8 C 17,6 C 14,9 C 68 % 1008,1 hPa 0,0 l/m 0,00 h 0,00 h 27 W/m 7,8 km/h (2 Bft) 97,95 %
10.05.2021 21:00 17,6 C 16,5 C 14,0 C 72 % 1008,2 hPa 0,0 l/m 0,00 h 0,00 h 0 W/m 9,1 km/h (2 Bft) 99,22 %
10.05.2021 22:00 16,8 C 15,8 C 13,4 C 74 % 1008,4 hPa 0,0 l/m 0,00 h 0,00 h 0 W/m 7,2 km/h (2 Bft) 95,38 %
10.05.2021 23:00 16,2 C 15,1 C 12,6 C 76 % 1008,5 hPa 0,0 l/m 0,00 h 0,00 h 0 W/m 3,7 km/h (1 Bft) 98,19 %
11.05.2021 00:00 15,3 C 14,3 C 12,0 C 80 % 1008,6 hPa 0,0 l/m 0,00 h 0,00 h 0 W/m 4,6 km/h (1 Bft) 99,16 %
11.05.2021 01:00 14,8 C 13,9 C 11,7 C 81 % 1008,6 hPa 0,0 l/m 0,00 h 0,00 h 0 W/m 4,6 km/h (1 Bft) 96,67 %
11.05.2021 02:00 14,4 C 13,6 C 11,0 C 84 % 1008,8 hPa 0,2 l/m 0,00 h 0,53 h 0 W/m 5,8 km/h (2 Bft) 97,37 %
11.05.2021 03:00 13,9 C 12,5 C 10,0 C 89 % 1009,0 hPa 0,6 l/m 0,00 h 0,67 h 0 W/m 4,5 km/h (1 Bft) 98,34 %
11.05.2021 04:00 13,3 C 12,2 C 10,3 C 93 % 1008,7 hPa 0,0 l/m 0,00 h 0,00 h 0 W/m 4,7 km/h (1 Bft) 96,29 %
11.05.2021 05:00 13,0 C 12,2 C 10,6 C 95 % 1008,6 hPa 0,0 l/m 0,00 h 0,23 h 0 W/m 5,9 km/h (2 Bft) 98,11 %
11.05.2021 06:00 13,0 C 12,2 C 10,6 C 96 % 1008,7 hPa 0,2 l/m 0,00 h 0,03 h 8 W/m 7,5 km/h (2 Bft) 98,09 %
11.05.2021 07:00 13,0 C 12,6 C 10,8 C 97 % 1008,7 hPa 0,2 l/m 0,07 h 0,37 h 64 W/m 5,0 km/h (1 Bft) 95,16 %
11.05.2021 08:00 13,6 C 14,3 C 11,7 C 97 % 1008,4 hPa 0,0 l/m 0,07 h 0,00 h 127 W/m 3,3 km/h (1 Bft) 98,37 %
11.05.2021 09:00 14,1 C 14,1 C 12,1 C 95 % 1008,3 hPa 0,0 l/m 0,00 h 0,00 h 134 W/m 4,7 km/h (1 Bft) 97,05 %
11.05.2021 10:00 14,8 C 16,2 C 14,3 C 91 % 1008,1 hPa 0,0 l/m 0,33 h 0,00 h 277 W/m 3,2 km/h (1 Bft) 98,26 %
11.05.2021 11:00 16,8 C 18,9 C 17,0 C 85 % 1008,0 hPa 0,0 l/m 0,67 h 0,00 h 540 W/m 6,0 km/h (2 Bft) 98,52 %
11.05.2021 12:00 17,7 C 18,0 C 16,3 C 79 % 1007,6 hPa 0,0 l/m 0,23 h 0,00 h 178 W/m 9,2 km/h (2 Bft) 95,40 %
11.05.2021 13:00 16,1 C 15,0 C 12,8 C 86 % 1007,8 hPa 0,8 l/m 0,00 h 0,73 h 43 W/m 5,9 km/h (2 Bft) 98,31 %
11.05.2021 14:00 14,7 C 13,5 C 11,7 C 94 % 1008,3 hPa 3,6 l/m 0,00 h 1,00 h 99 W/m 3,1 km/h (1 Bft) 99,51 %
11.05.2021 15:00 14,1 C 13,6 C 11,9 C 97 % 1008,2 hPa 0,4 l/m 0,00 h 0,83 h 177 W/m 6,7 km/h (2 Bft) 95,30 %
11.05.2021 16:00 14,3 C 14,1 C 12,3 C 97 % 1008,0 hPa 0,0 l/m 0,00 h 0,00 h 142 W/m 5,2 km/h (1 Bft) 97,07 %
11.05.2021 17:00 14,6 C 14,6 C 12,5 C 97 % 1008,1 hPa 0,0 l/m 0,00 h 0,00 h 118 W/m 5,6 km/h (1 Bft) 99,62 %
11.05.2021 18:00 14,8 C 14,4 C 12,3 C 95 % 1008,4 hPa 0,0 l/m 0,00 h 0,00 h 66 W/m 3,9 km/h (1 Bft) 95,93 %
11.05.2021 19:00 15,0 C 14,4 C 12,3 C 95 % 1008,6 hPa 0,0 l/m 0,00 h 0,00 h 39 W/m 2,5 km/h (1 Bft) 99,36 %
11.05.2021 20:00 14,8 C 14,0 C 12,3 C 94 % 1009,0 hPa 0,0 l/m 0,00 h 0,00 h 12 W/m 2,0 km/h (1 Bft) 98,94 %
11.05.2021 21:00 14,3 C 13,6 C 11,6 C 94 % 1009,8 hPa 0,0 l/m 0,00 h 0,13 h 0 W/m 5,1 km/h (1 Bft) 94,31 %
11.05.2021 22:00 13,6 C 12,8 C 11,1 C 95 % 1010,0 hPa 0,0 l/m 0,00 h 0,00 h 0 W/m 2,7 km/h (1 Bft) 97,29 %
11.05.2021 23:00 13,0 C 12,3 C 11,1 C 96 % 1010,3 hPa 0,0 l/m 0,00 h 0,13 h 0 W/m 6,1 km/h (2 Bft) 98,40 %
12.05.2021 00:00 12,6 C 12,0 C 10,9 C 95 % 1010,4 hPa 0,0 l/m 0,00 h 0,07 h 0 W/m 4,4 km/h (1 Bft) 96,48 %
12.05.2021 01:00 12,2 C 11,5 C 10,6 C 94 % 1010,5 hPa 0,0 l/m 0,00 h 0,00 h 0 W/m 5,6 km/h (1 Bft) 99,36 %
12.05.2021 02:00 11,8 C 11,1 C 10,6 C 94 % 1010,8 hPa 0,0 l/m 0,00 h 0,00 h 0 W/m 5,1 km/h (1 Bft) 98,01 %
12.05.2021 03:00 11,6 C 11,1 C 10,0 C 94 % 1011,1 hPa 0,0 l/m 0,00 h 0,00 h 0 W/m 3,5 km/h (1 Bft) 96,94 %
12.05.2021 04:00 11,5 C 10,8 C 10,0 C 93 % 1011,2 hPa 0,0 l/m 0,00 h 0,00 h 0 W/m 3,0 km/h (1 Bft) 98,08 %
12.05.2021 05:00 11,4 C 10,6 C 10,0 C 94 % 1011,2 hPa 0,0 l/m 0,00 h 0,00 h 1 W/m 2,5 km/h (1 Bft) 95,93 %
12.05.2021 06:00 11,3 C 10,6 C 10,0 C 94 % 1011,4 hPa 0,0 l/m 0,00 h 0,00 h 13 W/m 4,4 km/h (1 Bft) 96,50 %
12.05.2021 07:00 11,6 C 11,4 C 10,5 C 94 % 1011,6 hPa 0,0 l/m 0,00 h 0,00 h 58 W/m 3,5 km/h (1 Bft) 98,83 %
12.05.2021 08:00 12,1 C 13,0 C 11,1 C 91 % 1011,8 hPa 0,0 l/m 0,33 h 0,00 h 187 W/m 7,6 km/h (2 Bft) 97,74 %
12.05.2021 09:00 13,4 C 15,7 C 13,9 C 88 % 1012,1 hPa 0,0 l/m 0,63 h 0,00 h 324 W/m 7,5 km/h (2 Bft) 98,16 %
12.05.2021 10:00 14,7 C 17,4 C 18,2 C 83 % 1012,0 hPa 0,0 l/m 0,63 h 0,00 h 525 W/m 8,5 km/h (2 Bft) 97,72 %
12.05.2021 11:00 16,0 C 18,0 C 17,4 C 77 % 1011,8 hPa 0,0 l/m 0,60 h 0,00 h 596 W/m 10,3 km/h (2 Bft) 97,95 %
12.05.2021 12:00 17,1 C 19,1 C 21,8 C 70 % 1011,6 hPa 0,0 l/m 0,63 h 0,00 h 645 W/m 10,1 km/h (2 Bft) 99,30 %
12.05.2021 13:00 17,7 C 20,1 C 21,4 C 66 % 1011,2 hPa 0,0 l/m 0,60 h 0,00 h 714 W/m 9,3 km/h (2 Bft) 95,82 %
12.05.2021 14:00 19,9 C 23,4 C 17,4 C 59 % 1010,8 hPa 0,0 l/m 1,00 h 0,00 h 967 W/m 12,5 km/h (3 Bft) 95,71 %
12.05.2021 15:00 20,0 C 22,7 C 17,3 C 56 % 1010,5 hPa 0,0 l/m 0,60 h 0,00 h 623 W/m 9,8 km/h (2 Bft) 99,44 %
12.05.2021 16:00 19,0 C 19,8 C 16,2 C 56 % 1010,2 hPa 0,0 l/m 0,03 h 0,00 h 234 W/m 6,1 km/h (2 Bft) 96,46 %
12.05.2021 17:00 18,8 C 18,6 C 15,6 C 55 % 1010,1 hPa 0,0 l/m 0,00 h 0,00 h 128 W/m 4,3 km/h (1 Bft) 96,80 %
12.05.2021 18:00 15,7 C 14,8 C 12,1 C 76 % 1010,4 hPa 0,0 l/m 0,00 h 0,43 h 76 W/m 14,2 km/h (3 Bft) 99,91 %
12.05.2021 19:00 14,5 C 14,1 C 11,3 C 80 % 1010,5 hPa 0,0 l/m 0,00 h 0,50 h 56 W/m 9,0 km/h (2 Bft) 97,27 %
12.05.2021 20:00 14,0 C 13,1 C 10,5 C 83 % 1010,6 hPa 0,0 l/m 0,00 h 0,17 h 14 W/m 0,9 km/h (0 Bft) 97,01 %
12.05.2021 21:00 13,2 C 12,0 C 10,0 C 86 % 1010,9 hPa 0,0 l/m 0,00 h 0,00 h 4 W/m 1,2 km/h (1 Bft) 97,57 %
12.05.2021 22:00 12,1 C 10,3 C 8,6 C 88 % 1010,8 hPa 0,0 l/m 0,00 h 0,00 h 0 W/m 0,1 km/h (0 Bft) 96,41 %
12.05.2021 23:00 11,3 C 10,3 C 8,7 C 91 % 1010,5 hPa 0,0 l/m 0,00 h 0,00 h 0 W/m 0,6 km/h (0 Bft) 97,23 %
13.05.2021 00:00 10,7 C 9,5 C 8,2 C 93 % 1010,5 hPa 0,0 l/m 0,00 h 0,00 h 0 W/m 1,3 km/h (1 Bft) 98,05 %
13.05.2021 01:00 9,9 C 8,5 C 7,3 C 94 % 1010,1 hPa 0,0 l/m 0,00 h 0,00 h 0 W/m 0,0 km/h (0 Bft) 99,52 %
13.05.2021 02:00 9,0 C 7,9 C 6,7 C 94 % 1009,7 hPa 0,0 l/m 0,00 h 0,00 h 0 W/m 0,2 km/h (0 Bft) 96,20 %
13.05.2021 03:00 8,5 C 7,2 C 6,3 C 95 % 1009,5 hPa 0,2 l/m 0,00 h 0,00 h 0 W/m 0,2 km/h (0 Bft) 97,47 %
13.05.2021 04:00 7,9 C 6,7 C 5,9 C 96 % 1009,1 hPa 0,0 l/m 0,00 h 0,00 h 0 W/m 0,0 km/h (0 Bft) 96,47 %
13.05.2021 05:00 7,4 C 6,7 C 5,6 C 96 % 1008,9 hPa 0,0 l/m 0,00 h 0,00 h 4 W/m 0,0 km/h (0 Bft) 91,97 %
13.05.2021 06:00 7,2 C 6,8 C 5,7 C 96 % 1008,6 hPa 0,0 l/m 0,00 h 0,00 h 27 W/m 0,6 km/h (0 Bft) 90,58 %
13.05.2021 07:00 7,7 C 7,8 C 6,5 C 97 % 1008,4 hPa 0,0 l/m 0,00 h 0,00 h 50 W/m 0,5 km/h (0 Bft) 98,76 %
13.05.2021 08:00 10,0 C 13,4 C 9,1 C 99 % 1008,2 hPa 0,0 l/m 0,87 h 0,00 h 302 W/m 4,5 km/h (1 Bft) 98,75 %
13.05.2021 09:00 13,8 C 19,8 C 16,9 C 92 % 1008,0 hPa 0,0 l/m 1,00 h 0,00 h 529 W/m 9,0 km/h (2 Bft) 96,72 %
13.05.2021 10:00 16,7 C 20,5 C 22,9 C 75 % 1007,8 hPa 0,0 l/m 1,00 h 0,00 h 690 W/m 9,3 km/h (2 Bft) 97,86 %
13.05.2021 11:00 18,5 C 21,6 C 20,3 C 63 % 1007,4 hPa 0,0 l/m 1,00 h 0,00 h 810 W/m 8,0 km/h (2 Bft) 95,72 %
13.05.2021 12:00 20,1 C 23,0 C 28,5 C 57 % 1007,0 hPa 0,0 l/m 1,00 h 0,00 h 897 W/m 9,5 km/h (2 Bft) 96,31 %
13.05.2021 13:00 20,7 C 23,0 C 25,7 C 53 % 1006,6 hPa 0,0 l/m 0,70 h 0,00 h 708 W/m 9,8 km/h (2 Bft) 98,93 %
13.05.2021 14:00 20,9 C 23,2 C 18,0 C 50 % 1006,1 hPa 0,0 l/m 0,73 h 0,00 h 677 W/m 7,1 km/h (2 Bft) 96,51 %
13.05.2021 15:00 20,8 C 21,5 C 17,8 C 49 % 1005,7 hPa 0,0 l/m 0,17 h 0,00 h 292 W/m 7,7 km/h (2 Bft) 98,65 %
13.05.2021 16:00 19,7 C 19,0 C 16,4 C 51 % 1005,5 hPa 0,0 l/m 0,00 h 0,00 h 101 W/m 3,9 km/h (1 Bft) 97,51 %
13.05.2021 17:00 18,6 C 17,8 C 15,4 C 59 % 1005,5 hPa 0,0 l/m 0,00 h 0,03 h 120 W/m 9,2 km/h (2 Bft) 96,79 %
13.05.2021 18:00 15,7 C 15,6 C 13,2 C 74 % 1006,0 hPa 0,0 l/m 0,17 h 0,00 h 165 W/m 15,3 km/h (3 Bft) 99,24 %
13.05.2021 19:00 15,4 C 15,1 C 12,6 C 77 % 1006,5 hPa 0,0 l/m 0,23 h 0,00 h 106 W/m 10,4 km/h (2 Bft) 96,65 %
13.05.2021 20:00 14,9 C 14,2 C 12,0 C 78 % 1006,9 hPa 0,0 l/m 0,17 h 0,00 h 39 W/m 6,5 km/h (2 Bft) 97,58 %
13.05.2021 21:00 14,3 C 13,4 C 11,1 C 80 % 1007,3 hPa 0,0 l/m 0,00 h 0,00 h 4 W/m 2,7 km/h (1 Bft) 98,00 %
13.05.2021 22:00 14,1 C 13,3 C 11,1 C 82 % 1007,7 hPa 0,0 l/m 0,00 h 0,00 h 0 W/m 3,2 km/h (1 Bft) 96,53 %
13.05.2021 23:00 13,7 C 12,8 C 10,6 C 84 % 1007,6 hPa 0,0 l/m 0,00 h 0,00 h 0 W/m 4,0 km/h (1 Bft) 98,63 %
14.05.2021 00:00 13,1 C 12,2 C 10,1 C 87 % 1007,7 hPa 0,0 l/m 0,00 h 0,07 h 0 W/m 0,3 km/h (0 Bft) 97,64 %
14.05.2021 01:00 12,7 C 11,8 C 9,9 C 89 % 1007,3 hPa 0,0 l/m 0,00 h 0,00 h 0 W/m 0,1 km/h (0 Bft) 96,03 %
14.05.2021 02:00 11,9 C 10,6 C 9,2 C 90 % 1007,1 hPa 0,0 l/m 0,00 h 0,00 h 0 W/m 0,7 km/h (0 Bft) 97,58 %
14.05.2021 03:00 10,9 C 9,4 C 8,0 C 91 % 1007,1 hPa 0,0 l/m 0,00 h 0,00 h 0 W/m 0,0 km/h (0 Bft) 98,14 %
14.05.2021 04:00 10,3 C 9,4 C 8,3 C 94 % 1007,0 hPa 0,0 l/m 0,00 h 0,00 h 0 W/m 2,9 km/h (1 Bft) 99,27 %
14.05.2021 05:00 9,8 C 8,4 C 7,4 C 94 % 1006,9 hPa 0,0 l/m 0,00 h 0,00 h 8 W/m 0,0 km/h (0 Bft) 95,87 %
14.05.2021 06:00 9,4 C 8,7 C 7,6 C 95 % 1007,0 hPa 0,0 l/m 0,00 h 0,00 h 33 W/m 0,3 km/h (0 Bft) 98,98 %
14.05.2021 07:00 9,7 C 10,0 C 8,5 C 96 % 1007,3 hPa 0,0 l/m 0,00 h 0,00 h 89 W/m 1,1 km/h (0 Bft) 96,94 %
14.05.2021 08:00 10,8 C 12,4 C 9,9 C 92 % 1007,6 hPa 0,0 l/m 0,80 h 0,00 h 228 W/m 3,3 km/h (1 Bft) 95,82 %
14.05.2021 09:00 13,1 C 15,9 C 13,4 C 82 % 1007,9 hPa 0,0 l/m 1,00 h 0,00 h 377 W/m 7,6 km/h (2 Bft) 98,87 %
14.05.2021 10:00 15,0 C 18,2 C 19,8 C 75 % 1008,0 hPa 0,0 l/m 1,00 h 0,00 h 655 W/m 7,9 km/h (2 Bft) 99,64 %
14.05.2021 11:00 16,5 C 19,5 C 18,4 C 66 % 1008,0 hPa 0,0 l/m 1,00 h 0,00 h 793 W/m 9,1 km/h (2 Bft) 96,80 %
14.05.2021 12:00 16,6 C 17,7 C 16,0 C 64 % 1007,8 hPa 0,0 l/m 0,17 h 0,00 h 320 W/m 8,5 km/h (2 Bft) 98,45 %
14.05.2021 13:00 18,2 C 20,1 C 19,1 C 59 % 1007,6 hPa 0,0 l/m 0,97 h 0,00 h 635 W/m 10,0 km/h (2 Bft) 95,87 %
14.05.2021 14:00 19,5 C 21,5 C 16,9 C 55 % 1007,5 hPa 0,0 l/m 0,67 h 0,00 h 677 W/m 10,6 km/h (2 Bft) 97,37 %
14.05.2021 15:00 18,2 C 18,1 C 15,5 C 58 % 1007,5 hPa 0,0 l/m 0,07 h 0,00 h 255 W/m 12,9 km/h (3 Bft) 98,59 %
14.05.2021 16:00 15,9 C 15,0 C 12,8 C 70 % 1007,9 hPa 0,2 l/m 0,00 h 0,27 h 94 W/m 20,2 km/h (4 Bft) 96,94 %
14.05.2021 17:00 13,6 C 13,1 C 9,3 C 86 % 1007,7 hPa 0,4 l/m 0,00 h 0,50 h 131 W/m 12,2 km/h (2 Bft) 97,13 %
14.05.2021 18:00 15,7 C 21,0 C 11,3 C 80 % 1007,4 hPa 0,0 l/m 0,97 h 0,00 h 397 W/m 6,1 km/h (2 Bft) 97,42 %
14.05.2021 19:00 16,8 C 17,0 C 12,1 C 69 % 1007,4 hPa 0,0 l/m 0,47 h 0,00 h 114 W/m 4,1 km/h (1 Bft) 96,22 %
14.05.2021 20:00 15,8 C 14,8 C 12,3 C 71 % 1007,5 hPa 0,0 l/m 0,07 h 0,00 h 26 W/m 5,5 km/h (1 Bft) 99,22 %
14.05.2021 21:00 14,3 C 13,1 C 10,9 C 78 % 1007,9 hPa 0,0 l/m 0,00 h 0,00 h 4 W/m 9,8 km/h (2 Bft) 97,94 %
14.05.2021 22:00 12,7 C 11,8 C 9,6 C 82 % 1008,2 hPa 0,0 l/m 0,00 h 0,00 h 0 W/m 6,1 km/h (2 Bft) 95,23 %
14.05.2021 23:00 12,0 C 11,2 C 9,1 C 83 % 1008,0 hPa 0,0 l/m 0,00 h 0,00 h 0 W/m 0,5 km/h (0 Bft) 99,29 %
15.05.2021 00:00 11,9 C 11,1 C 9,1 C 85 % 1007,9 hPa 0,0 l/m 0,00 h 0,00 h 0 W/m 2,0 km/h (1 Bft) 97,83 %
15.05.2021 01:00 11,0 C 9,7 C 8,1 C 87 % 1007,6 hPa 0,0 l/m 0,00 h 0,00 h 0 W/m 5,3 km/h (1 Bft) 97,36 %
15.05.2021 02:00 10,0 C 8,9 C 7,5 C 89 % 1007,2 hPa 0,0 l/m 0,00 h 0,00 h 0 W/m 2,8 km/h (1 Bft) 96,81 %
15.05.2021 03:00 9,3 C 8,2 C 6,9 C 91 % 1007,0 hPa 0,0 l/m 0,00 h 0,00 h 0 W/m 0,3 km/h (0 Bft) 97,01 %
15.05.2021 04:00 9,4 C 9,1 C 7,6 C 94 % 1006,5 hPa 0,0 l/m 0,00 h 0,00 h 0 W/m 2,0 km/h (1 Bft) 95,80 %
15.05.2021 05:00 9,7 C 9,4 C 7,8 C 94 % 1006,2 hPa 0,0 l/m 0,00 h 0,00 h 5 W/m 5,0 km/h (1 Bft) 97,08 %
15.05.2021 06:00 9,8 C 9,4 C 8,1 C 94 % 1006,2 hPa 0,0 l/m 0,00 h 0,00 h 21 W/m 6,3 km/h (2 Bft) 99,39 %
15.05.2021 07:00 10,1 C 10,0 C 8,6 C 93 % 1006,2 hPa 0,0 l/m 0,00 h 0,00 h 40 W/m 7,9 km/h (2 Bft) 97,11 %
15.05.2021 08:00 10,7 C 10,6 C 9,0 C 91 % 1006,0 hPa 0,0 l/m 0,00 h 0,00 h 74 W/m 13,3 km/h (3 Bft) 97,73 %
15.05.2021 09:00 11,3 C 11,6 C 9,9 C 89 % 1005,9 hPa 0,0 l/m 0,07 h 0,00 h 174 W/m 14,3 km/h (3 Bft) 95,91 %
15.05.2021 10:00 12,3 C 13,1 C 11,5 C 85 % 1005,7 hPa 0,0 l/m 0,30 h 0,07 h 301 W/m 12,7 km/h (3 Bft) 95,44 %
15.05.2021 11:00 13,8 C 15,3 C 13,4 C 79 % 1005,1 hPa 0,0 l/m 0,53 h 0,00 h 443 W/m 9,2 km/h (2 Bft) 99,08 %
15.05.2021 12:00 13,1 C 12,6 C 10,2 C 81 % 1004,7 hPa 0,8 l/m 0,17 h 0,37 h 204 W/m 8,6 km/h (2 Bft) 97,79 %
15.05.2021 13:00 13,2 C 14,3 C 10,7 C 87 % 1004,1 hPa 0,0 l/m 0,70 h 0,13 h 457 W/m 10,0 km/h (2 Bft) 96,23 %
15.05.2021 14:00 15,2 C 16,3 C 12,2 C 77 % 1003,1 hPa 0,0 l/m 0,50 h 0,00 h 454 W/m 15,2 km/h (3 Bft) 98,01 %
15.05.2021 15:00 13,6 C 12,4 C 9,8 C 83 % 1002,7 hPa 2,0 l/m 0,03 h 0,67 h 175 W/m 12,3 km/h (3 Bft) 98,51 %
15.05.2021 16:00 13,3 C 14,0 C 10,0 C 87 % 1002,1 hPa 0,0 l/m 0,40 h 0,00 h 312 W/m 16,4 km/h (3 Bft) 95,10 %
15.05.2021 17:00 14,0 C 14,3 C 9,9 C 80 % 1001,6 hPa 0,0 l/m 0,27 h 0,00 h 227 W/m 13,7 km/h (3 Bft) 98,15 %
15.05.2021 18:00 14,0 C 13,5 C 10,5 C 80 % 1001,2 hPa 0,0 l/m 0,00 h 0,00 h 86 W/m 11,5 km/h (2 Bft) 97,42 %
15.05.2021 19:00 13,8 C 13,4 C 11,1 C 82 % 1000,7 hPa 0,0 l/m 0,07 h 0,00 h 81 W/m 11,8 km/h (2 Bft) 98,04 %
15.05.2021 20:00 13,7 C 13,0 C 10,9 C 80 % 1000,6 hPa 0,2 l/m 0,00 h 0,07 h 31 W/m 10,2 km/h (2 Bft) 96,96 %
15.05.2021 21:00 11,3 C 10,0 C 7,8 C 90 % 1001,1 hPa 0,6 l/m 0,00 h 0,33 h 7 W/m 9,7 km/h (2 Bft) 97,38 %
15.05.2021 22:00 10,1 C 9,1 C 7,3 C 92 % 1001,5 hPa 0,0 l/m 0,00 h 0,00 h 0 W/m 9,7 km/h (2 Bft) 97,85 %
15.05.2021 23:00 9,7 C 8,9 C 7,2 C 93 % 1001,6 hPa 0,0 l/m 0,00 h 0,00 h 0 W/m 10,3 km/h (2 Bft) 99,79 %
16.05.2021 00:00 9,8 C 9,1 C 7,5 C 94 % 1001,8 hPa 0,0 l/m 0,00 h 0,00 h 0 W/m 16,3 km/h (3 Bft) 93,48 %
16.05.2021 01:00 10,1 C 9,4 C 7,8 C 93 % 1002,0 hPa 0,0 l/m 0,00 h 0,00 h 0 W/m 21,3 km/h (4 Bft) 95,67 %
16.05.2021 02:00 9,9 C 9,2 C 7,8 C 92 % 1001,9 hPa 0,0 l/m 0,00 h 0,00 h 0 W/m 15,7 km/h (3 Bft) 97,08 %
16.05.2021 03:00 10,0 C 9,3 C 8,0 C 91 % 1001,9 hPa 0,0 l/m 0,00 h 0,00 h 0 W/m 18,8 km/h (3 Bft) 95,87 %
16.05.2021 04:00 9,5 C 8,7 C 7,4 C 90 % 1001,9 hPa 0,0 l/m 0,00 h 0,00 h 0 W/m 12,7 km/h (3 Bft) 99,24 %
16.05.2021 05:00 8,9 C 7,9 C 6,7 C 92 % 1001,9 hPa 0,0 l/m 0,00 h 0,00 h 6 W/m 9,3 km/h (2 Bft) 99,01 %
16.05.2021 06:00 8,6 C 8,1 C 6,8 C 94 % 1002,1 hPa 0,0 l/m 0,00 h 0,00 h 34 W/m 8,6 km/h (2 Bft) 97,56 %
16.05.2021 07:00 9,8 C 9,9 C 8,5 C 94 % 1002,3 hPa 0,0 l/m 0,37 h 0,00 h 113 W/m 14,8 km/h (3 Bft) 97,01 %
16.05.2021 08:00 10,7 C 10,4 C 9,0 C 91 % 1002,5 hPa 0,0 l/m 0,00 h 0,00 h 95 W/m 18,8 km/h (3 Bft) 96,95 %
16.05.2021 09:00 11,5 C 12,2 C 10,4 C 88 % 1002,6 hPa 0,0 l/m 0,23 h 0,10 h 203 W/m 17,9 km/h (3 Bft) 96,30 %
16.05.2021 10:00 12,2 C 12,8 C 11,0 C 85 % 1002,7 hPa 0,2 l/m 0,27 h 0,10 h 309 W/m 19,8 km/h (4 Bft) 99,72 %
16.05.2021 11:00 13,6 C 14,4 C 12,0 C 80 % 1002,6 hPa 0,4 l/m 0,53 h 0,47 h 510 W/m 24,5 km/h (4 Bft) 96,64 %
16.05.2021 12:00 13,4 C 14,3 C 11,8 C 79 % 1002,3 hPa 0,2 l/m 0,90 h 0,10 h 556 W/m 27,9 km/h (4 Bft) 95,10 %
16.05.2021 13:00 15,8 C 17,1 C 16,4 C 70 % 1001,6 hPa 0,0 l/m 0,53 h 0,00 h 462 W/m 19,8 km/h (4 Bft) 96,94 %
16.05.2021 14:00 16,2 C 17,4 C 14,6 C 64 % 1001,3 hPa 0,0 l/m 0,73 h 0,00 h 575 W/m 26,7 km/h (4 Bft) 96,51 %
16.05.2021 15:00 17,2 C 19,0 C 14,9 C 64 % 1000,8 hPa 0,0 l/m 0,70 h 0,00 h 620 W/m 21,2 km/h (4 Bft) 97,72 %
16.05.2021 16:00 17,5 C 20,9 C 15,2 C 62 % 1000,4 hPa 0,0 l/m 0,77 h 0,00 h 648 W/m 18,6 km/h (3 Bft) 97,88 %
16.05.2021 17:00 17,4 C 18,3 C 14,5 C 62 % 999,9 hPa 0,0 l/m 0,37 h 0,07 h 257 W/m 18,8 km/h (3 Bft) 97,01 %
16.05.2021 18:00 13,4 C 11,8 C 8,8 C 82 % 1000,1 hPa 3,2 l/m 0,00 h 0,30 h 103 W/m 9,3 km/h (2 Bft) 97,21 %
16.05.2021 19:00 13,3 C 13,0 C 8,8 C 84 % 1000,2 hPa 0,0 l/m 0,50 h 0,00 h 153 W/m 10,6 km/h (2 Bft) 97,00 %
16.05.2021 20:00 12,8 C 11,7 C 8,2 C 83 % 1000,4 hPa 0,0 l/m 0,00 h 0,00 h 22 W/m 2,5 km/h (1 Bft) 97,93 %
16.05.2021 21:00 11,7 C 9,8 C 7,5 C 87 % 1000,9 hPa 0,0 l/m 0,00 h 0,00 h 7 W/m 0,5 km/h (0 Bft) 98,79 %
16.05.2021 22:00 10,6 C 9,4 C 7,2 C 90 % 1001,0 hPa 0,0 l/m 0,00 h 0,00 h 0 W/m 2,1 km/h (1 Bft) 99,50 %
16.05.2021 23:00 10,1 C 9,4 C 7,2 C 91 % 1001,1 hPa 0,0 l/m 0,00 h 0,00 h 0 W/m 4,1 km/h (1 Bft) 93,93 %
Min-Datum _ 13.05.21 13.05.21 13.05.21 13.05.21 16.05.21 - - - - 10.05.21 16.05.21
_ Min-Zeit 06:14 06:04 04:38 14:48 17:30 - - - - 23:18 00:02
Minimum _ 7,0 C 6,1 C 5,6 C 47 % 999,8 hPa - - - - 0,0 km/h (0 Bft) 13,33 %
Max-Datum _ 10.05.21 12.05.21 13.05.21 13.05.21 12.05.21 11.05.21 14.05.21 12.05.21 14.05.21 15.05.21 10.05.21
_ Max-Zeit 04:04 15:34 12:46 08:16 09:44 14:00 08:50 18:08 13:58 15:26 00:00
Maximum _ 21,9 C 26,1 C 31,1 C 99 % 1012,2 hPa 3,6 l/m 0,08 h 0,07 h 1148 W/m 70,8 km/h
O-SO (8 Bft)
100,00 %
Durchschnitt _ 14,3 C 14,3 C 12,2 C 81 % 1006,5 hPa #14,4 l/m #32:24 h #9:58 h 244 W/m 9,2 km/h (2 Bft) 97,39 %
© 2021 W. Hausmann